createdAt,value
2023-09-03T00:00:25.165Z,17.11
2023-09-03T00:05:27.122Z,17.11
2023-09-03T00:10:29.307Z,17.10
2023-09-03T00:15:31.175Z,17.07
2023-09-03T00:20:33.233Z,17.04
2023-09-03T00:25:38.733Z,17.02
2023-09-03T00:30:40.791Z,17.03
2023-09-03T00:35:45.203Z,17.07
2023-09-03T00:40:47.055Z,17.10
2023-09-03T00:45:50.144Z,17.16
2023-09-03T00:50:53.755Z,17.21
2023-09-03T00:55:55.869Z,17.30
2023-09-03T01:00:58.820Z,17.34
2023-09-03T01:06:00.816Z,17.38
2023-09-03T01:11:21.452Z,17.42
2023-09-03T01:16:32.023Z,17.43
2023-09-03T01:21:50.669Z,17.43
2023-09-03T01:27:38.796Z,17.42
2023-09-03T01:32:40.827Z,17.39
2023-09-03T01:37:43.195Z,17.38
2023-09-03T01:42:45.138Z,17.39
2023-09-03T01:47:56.505Z,17.36
2023-09-03T01:53:06.504Z,17.35
2023-09-03T01:58:11.253Z,17.35
2023-09-03T02:03:14.999Z,17.33
2023-09-03T02:08:16.889Z,17.32
2023-09-03T02:13:19.254Z,17.31
2023-09-03T02:18:21.357Z,17.31
2023-09-03T02:23:24.815Z,17.30
2023-09-03T02:28:26.725Z,17.31
2023-09-03T02:33:30.086Z,17.30
2023-09-03T02:38:33.096Z,17.25
2023-09-03T02:43:34.885Z,17.20
2023-09-03T02:48:36.816Z,17.16
2023-09-03T02:53:38.813Z,17.13
2023-09-03T02:58:41.269Z,17.10
2023-09-03T03:03:45.914Z,17.10
2023-09-03T03:08:47.813Z,17.11
2023-09-03T03:13:53.468Z,17.09
2023-09-03T03:18:59.019Z,17.08
2023-09-03T03:24:07.070Z,17.06
2023-09-03T03:29:11.956Z,17.06
2023-09-03T03:34:29.210Z,17.03
2023-09-03T03:39:33.881Z,17.06
2023-09-03T03:44:36.029Z,17.07
2023-09-03T03:49:38.063Z,17.08
2023-09-03T03:54:41.009Z,17.03
2023-09-03T03:59:42.938Z,17.01
2023-09-03T04:04:45.400Z,17.01
2023-09-03T04:09:47.391Z,17.01
2023-09-03T04:14:49.308Z,16.99
2023-09-03T04:19:51.829Z,17.01
2023-09-03T04:24:53.776Z,17.02
2023-09-03T04:29:55.822Z,17.07
2023-09-03T04:34:58.370Z,17.09
2023-09-03T04:40:04.501Z,17.11
2023-09-03T04:45:07.046Z,17.15
2023-09-03T04:50:09.655Z,17.19
2023-09-03T04:55:12.911Z,17.22
2023-09-03T05:00:15.016Z,17.23
2023-09-03T05:05:19.290Z,17.28
2023-09-03T05:10:22.657Z,17.30
2023-09-03T05:15:24.683Z,17.33
2023-09-03T05:20:26.540Z,17.35
2023-09-03T05:25:28.404Z,17.36
2023-09-03T05:30:31.829Z,17.39
2023-09-03T05:35:35.269Z,17.41
2023-09-03T05:40:37.265Z,17.48
2023-09-03T05:45:47.426Z,17.53
2023-09-03T05:50:57.835Z,17.56
2023-09-03T05:56:06.251Z,17.61
2023-09-03T06:01:12.783Z,17.70
2023-09-03T06:06:15.680Z,17.79
2023-09-03T06:11:18.757Z,17.87
2023-09-03T06:16:20.694Z,18.01
2023-09-03T06:21:22.849Z,18.21
2023-09-03T06:26:24.819Z,18.35
2023-09-03T06:31:26.899Z,18.53
2023-09-03T06:36:29.000Z,18.57
2023-09-03T06:41:31.086Z,18.63
2023-09-03T06:46:33.074Z,18.70
2023-09-03T06:51:35.058Z,18.71
2023-09-03T06:56:36.963Z,18.72
2023-09-03T07:01:39.584Z,18.75
2023-09-03T07:06:41.481Z,18.84
2023-09-03T07:11:43.344Z,18.92
2023-09-03T07:16:45.462Z,19.04
2023-09-03T07:21:48.372Z,18.97
2023-09-03T07:26:50.972Z,18.94
2023-09-03T07:31:52.891Z,18.93
2023-09-03T07:36:54.728Z,18.89
2023-09-03T07:41:57.980Z,18.89
2023-09-03T07:46:59.903Z,18.93
2023-09-03T07:52:01.835Z,19.04
2023-09-03T07:57:03.852Z,19.19
2023-09-03T08:02:05.863Z,19.18
2023-09-03T08:07:07.802Z,19.13
2023-09-03T08:12:10.346Z,19.19
2023-09-03T08:17:12.260Z,19.29
2023-09-03T08:22:14.239Z,19.27
2023-09-03T08:27:16.242Z,19.23
2023-09-03T08:32:18.174Z,19.27
2023-09-03T08:37:20.221Z,19.35
2023-09-03T08:42:23.017Z,19.43
2023-09-03T08:47:25.612Z,19.56
2023-09-03T08:52:30.092Z,19.60
2023-09-03T08:57:35.942Z,19.69
2023-09-03T09:02:38.903Z,19.85
2023-09-03T09:07:41.318Z,20.00
2023-09-03T09:12:57.695Z,20.07
2023-09-03T09:17:59.828Z,20.13
2023-09-03T09:23:02.207Z,20.14
2023-09-03T09:28:14.552Z,20.22
2023-09-03T09:33:16.428Z,20.35
2023-09-03T09:38:19.722Z,20.45
2023-09-03T09:43:22.011Z,20.58
2023-09-03T09:48:24.129Z,20.59
2023-09-03T09:53:27.854Z,20.41
2023-09-03T09:58:40.140Z,20.28
2023-09-03T10:03:44.512Z,20.39
2023-09-03T10:08:51.686Z,20.35
2023-09-03T10:13:54.059Z,20.21
2023-09-03T10:18:59.594Z,20.01
2023-09-03T10:24:07.020Z,20.09
2023-09-03T10:29:12.335Z,20.33
2023-09-03T10:34:17.267Z,20.41
2023-09-03T10:39:25.169Z,20.48
2023-09-03T10:44:33.619Z,20.47
2023-09-03T10:49:43.012Z,20.60
2023-09-03T10:54:45.049Z,20.83
2023-09-03T10:59:59.365Z,20.81
2023-09-03T11:05:23.394Z,20.72
2023-09-03T11:10:26.838Z,20.91
2023-09-03T11:15:28.796Z,21.24
2023-09-03T11:25:43.134Z,21.09
2023-09-03T11:30:49.080Z,21.03
2023-09-03T11:35:52.071Z,21.10
2023-09-03T11:41:00.239Z,21.10
2023-09-03T11:46:05.753Z,21.06
2023-09-03T11:51:08.564Z,20.92
2023-09-03T11:56:14.178Z,20.87
2023-09-03T12:01:19.203Z,20.96
2023-09-03T12:06:22.484Z,21.04
2023-09-03T12:11:30.731Z,20.98
2023-09-03T12:16:46.743Z,20.95
2023-09-03T12:21:52.647Z,20.93
2023-09-03T12:27:05.601Z,20.99
2023-09-03T12:32:09.356Z,21.12
2023-09-03T12:37:11.406Z,21.06
2023-09-03T12:42:13.578Z,21.00
2023-09-03T12:47:15.628Z,20.96
2023-09-03T12:52:17.602Z,20.95
2023-09-03T12:57:21.883Z,20.98
2023-09-03T13:02:23.898Z,21.01
2023-09-03T13:07:26.628Z,21.08
2023-09-03T13:12:28.550Z,21.05
2023-09-03T13:17:33.129Z,21.07
2023-09-03T13:22:35.220Z,21.07
2023-09-03T13:27:37.130Z,21.07
2023-09-03T13:32:39.149Z,21.12
2023-09-03T13:37:41.035Z,21.15
2023-09-03T13:42:42.947Z,21.16
2023-09-03T13:47:44.885Z,21.18
2023-09-03T13:52:46.842Z,21.17
2023-09-03T13:57:48.843Z,21.14
2023-09-03T14:02:51.033Z,21.11
2023-09-03T14:07:53.137Z,21.13
2023-09-03T14:12:55.085Z,21.07
2023-09-03T14:17:57.067Z,21.03
2023-09-03T14:22:59.004Z,20.91
2023-09-03T14:28:01.425Z,20.92
2023-09-03T14:33:03.842Z,20.89
2023-09-03T14:38:06.310Z,20.90
2023-09-03T14:43:08.455Z,20.89
2023-09-03T14:48:10.539Z,20.94
2023-09-03T14:53:13.793Z,20.93
2023-09-03T14:58:17.217Z,20.90
2023-09-03T15:03:19.321Z,20.92
2023-09-03T15:08:21.818Z,20.88
2023-09-03T15:13:24.190Z,20.87
2023-09-03T15:18:26.096Z,20.86
2023-09-03T15:23:28.215Z,20.95
2023-09-03T15:28:30.869Z,20.98
2023-09-03T15:33:33.125Z,20.94
2023-09-03T15:38:38.082Z,20.93
2023-09-03T15:43:41.886Z,20.86
2023-09-03T15:48:45.013Z,20.84
2023-09-03T15:53:47.047Z,20.76
2023-09-03T15:58:49.603Z,20.67
2023-09-03T16:03:51.865Z,20.60
2023-09-03T16:08:53.825Z,20.54
2023-09-03T16:13:55.799Z,20.47
2023-09-03T16:18:57.627Z,20.40
2023-09-03T16:23:59.571Z,20.33
2023-09-03T16:29:01.611Z,20.30
2023-09-03T16:34:06.349Z,20.26
2023-09-03T16:39:08.777Z,20.21
2023-09-03T16:44:11.578Z,20.16
2023-09-03T16:49:14.115Z,20.10
2023-09-03T16:54:16.185Z,20.08
2023-09-03T16:59:18.985Z,20.01
2023-09-03T17:04:21.137Z,19.98
2023-09-03T17:09:23.316Z,19.93
2023-09-03T17:14:25.319Z,19.89
2023-09-03T17:19:27.360Z,19.82
2023-09-03T17:24:29.290Z,19.76
2023-09-03T17:29:31.473Z,19.70
2023-09-03T17:34:33.518Z,19.67
2023-09-03T17:39:35.529Z,19.63
2023-09-03T17:44:37.507Z,19.59
2023-09-03T17:49:39.717Z,19.53
2023-09-03T17:54:42.012Z,19.45
2023-09-03T17:59:44.478Z,19.37
2023-09-03T18:04:46.777Z,19.32
2023-09-03T18:09:48.897Z,19.26
2023-09-03T18:14:51.054Z,19.15
2023-09-03T18:19:53.273Z,19.05
2023-09-03T18:24:55.167Z,18.99
2023-09-03T18:29:57.960Z,18.91
2023-09-03T18:34:59.931Z,18.83
2023-09-03T18:40:01.935Z,18.76
2023-09-03T18:45:04.064Z,18.69
2023-09-03T18:50:06.658Z,18.64
2023-09-03T18:55:08.857Z,18.59
2023-09-03T19:00:14.060Z,18.52
2023-09-03T19:05:16.790Z,18.47
2023-09-03T19:10:18.663Z,18.45
2023-09-03T19:15:20.755Z,18.41
2023-09-03T19:20:22.787Z,18.38
2023-09-03T19:25:24.630Z,18.35
2023-09-03T19:30:26.512Z,18.28
2023-09-03T19:35:28.704Z,18.23
2023-09-03T19:40:32.218Z,18.17
2023-09-03T19:45:34.026Z,18.12
2023-09-03T19:50:35.837Z,18.07
2023-09-03T19:55:38.449Z,18.05
2023-09-03T20:00:41.729Z,18.02
2023-09-03T20:05:43.701Z,17.98
2023-09-03T20:10:45.574Z,17.93
2023-09-03T20:15:57.911Z,17.91
2023-09-03T20:21:03.344Z,17.88
2023-09-03T20:26:07.334Z,17.85
2023-09-03T20:31:09.434Z,17.84
2023-09-03T20:36:11.648Z,17.86
2023-09-03T20:41:13.875Z,17.87
2023-09-03T20:46:15.995Z,17.87
2023-09-03T20:51:17.834Z,17.86
2023-09-03T20:56:19.699Z,17.83
2023-09-03T21:01:22.451Z,17.78
2023-09-03T21:06:24.428Z,17.73
2023-09-03T21:11:33.077Z,17.69
2023-09-03T21:16:35.359Z,17.69
2023-09-03T21:21:38.436Z,17.69
2023-09-03T21:26:41.904Z,17.70
2023-09-03T21:31:47.067Z,17.68
2023-09-03T21:36:49.211Z,17.68
2023-09-03T21:41:51.205Z,17.65
2023-09-03T21:46:53.193Z,17.64
2023-09-03T21:51:55.027Z,17.63
2023-09-03T21:56:56.997Z,17.59
2023-09-03T22:01:59.847Z,17.52
2023-09-03T22:07:01.772Z,17.46
2023-09-03T22:12:03.854Z,17.39
2023-09-03T22:17:05.757Z,17.35
2023-09-03T22:22:07.639Z,17.29
2023-09-03T22:27:09.738Z,17.23
2023-09-03T22:32:11.610Z,17.19
2023-09-03T22:37:15.059Z,17.13
2023-09-03T22:42:17.036Z,17.08
2023-09-03T22:47:19.034Z,17.04
2023-09-03T22:52:20.920Z,16.99
2023-09-03T22:57:24.430Z,16.95
2023-09-03T23:02:26.808Z,16.91
2023-09-03T23:07:29.265Z,16.90
2023-09-03T23:12:31.429Z,16.85
2023-09-03T23:17:33.534Z,16.82
2023-09-03T23:22:35.545Z,16.79
2023-09-03T23:27:37.722Z,16.76
2023-09-03T23:32:39.650Z,16.72
2023-09-03T23:37:42.373Z,16.69
2023-09-03T23:42:44.440Z,16.65
2023-09-03T23:47:46.851Z,16.64
2023-09-03T23:52:49.015Z,16.59
2023-09-03T23:57:51.052Z,16.54
